Rock Springs Sweetwater County Airport
KRKS : now visible

Airfield :











YOU CAN JOIN US ON...

 
LOGIN :

Register | Disclaimer

   EN    FR    IT 

 









Legend :    VFR   Marginal VFR   IFR   Intensive IFR   Very Intensive IFR
Visi :
Ceiling :
>= 8 km
>= 3000ft
5 to 8 km
1000 to 3000 ft
1500m to 5 km
500 to 1000 ft
800 to 1500m
200 to 500 ft
< 800m
< 200 ft
Symbols :   Thunderstorms  Fog  Heavy snow  Heavy precipitations  Wind > 20 kt






- Airport Elevation : 6764 ft
- IATA code : RKS


KRKS - Rock Springs Sweetwater County

CURRENT METAR :
  • 171254Z AUTO 20003KT 10SM CLR 07/M13 A2992 RMK AO2 SLP080 T00721128

EXPIRED METARs :
  • 171154Z AUTO 17008KT 10SM CLR 08/M13 A2993 RMK AO2 SLP075 T00781128 10111 20056 56024
  • 171054Z AUTO 17009KT 10SM CLR 07/M13 A2996 RMK AO2 SLP085 T00671128

TAF KRKS
Valid from the 17 at 12:00 until the 18 at 12:00 UTC


171122Z 1712/1812 15006KT P6SM BKN250
FM171700 20012KT P6SM SCT110 BKN250
FM171930 23020G30KT P6SM SCT110 BKN150
FM180000 26016G26KT P6SM VCSH SCT060 BKN080
FM180300 26011KT P6SM VCSH BKN060



MET'MAP, your aeronautical weather chart ! - Copyright ORBIFLY December 2007 - Disclaimer

ORBIFLY MET'MAP TEAM :

Programming & Development : Alexandra Zaïnal
Concept & Development : Baudouin d'Aumeries
Co-Development & Prog : Marc-Olivier Méhu
Technical & hardware support : Manuel Goepfert

Contact : metmap@orbifly.com




SOURCES & CREDITS :

   NOAA       Earth
Advisory